createdAt,value
2018-08-14T00:01:29.581Z,4.03
2018-08-14T00:03:57.922Z,6.60
2018-08-14T00:06:26.273Z,5.00
2018-08-14T00:08:54.617Z,3.70
2018-08-14T00:11:22.972Z,3.83
2018-08-14T00:13:51.293Z,4.73
2018-08-14T00:16:19.655Z,3.80
2018-08-14T00:18:48.031Z,6.07
2018-08-14T00:21:16.435Z,4.87
2018-08-14T00:23:44.768Z,6.30
2018-08-14T00:26:13.125Z,5.23
2018-08-14T00:28:41.465Z,7.43
2018-08-14T00:31:09.824Z,7.10
2018-08-14T00:33:38.207Z,9.70
2018-08-14T00:36:06.853Z,5.00
2018-08-14T00:38:35.230Z,4.47
2018-08-14T00:41:03.580Z,4.80
2018-08-14T00:43:31.922Z,3.73
2018-08-14T00:46:00.289Z,6.60
2018-08-14T00:48:28.624Z,4.23
2018-08-14T00:50:56.969Z,4.60
2018-08-14T00:53:25.330Z,4.90
2018-08-14T00:55:53.648Z,5.70
2018-08-14T00:58:21.962Z,4.47
2018-08-14T01:00:50.341Z,4.97
2018-08-14T01:03:18.631Z,4.87
2018-08-14T01:05:46.941Z,4.30
2018-08-14T01:08:15.244Z,4.40
2018-08-14T01:10:43.579Z,4.40
2018-08-14T01:13:11.917Z,4.63
2018-08-14T01:15:40.245Z,4.60
2018-08-14T01:18:08.610Z,4.77
2018-08-14T01:20:41.162Z,5.20
2018-08-14T01:23:09.494Z,4.47
2018-08-14T01:25:37.809Z,3.80
2018-08-14T01:28:06.349Z,4.03
2018-08-14T01:30:34.707Z,4.50
2018-08-14T01:33:03.039Z,10.53
2018-08-14T01:35:31.340Z,4.70
2018-08-14T01:37:59.686Z,5.00
2018-08-14T01:40:28.165Z,5.77
2018-08-14T01:42:56.539Z,4.50
2018-08-14T01:45:24.855Z,6.57
2018-08-14T01:47:53.244Z,5.83
2018-08-14T01:50:23.970Z,4.90
2018-08-14T01:52:52.415Z,6.30
2018-08-14T01:55:21.942Z,4.70
2018-08-14T01:57:51.144Z,4.97
2018-08-14T02:00:21.806Z,4.83
2018-08-14T02:02:50.528Z,4.20
2018-08-14T02:05:18.841Z,6.83
2018-08-14T02:07:47.183Z,5.53
2018-08-14T02:10:17.765Z,5.00
2018-08-14T02:12:46.068Z,5.83
2018-08-14T02:15:16.037Z,7.63
2018-08-14T02:17:44.631Z,4.80
2018-08-14T02:20:17.248Z,6.53
2018-08-14T02:22:45.893Z,10.80
2018-08-14T02:25:14.312Z,5.17
2018-08-14T02:27:43.366Z,6.03
2018-08-14T02:30:11.731Z,7.67
2018-08-14T02:32:40.126Z,10.20
2018-08-14T02:35:09.610Z,6.80
2018-08-14T02:37:38.211Z,5.43
2018-08-14T02:40:08.242Z,5.67
2018-08-14T02:42:36.540Z,5.70
2018-08-14T02:45:05.841Z,5.70
2018-08-14T02:47:34.124Z,7.03
2018-08-14T02:50:02.446Z,5.50
2018-08-14T02:52:30.775Z,7.23
2018-08-14T02:54:59.126Z,6.47
2018-08-14T02:57:27.489Z,4.63
2018-08-14T02:59:55.831Z,6.40
2018-08-14T03:02:24.169Z,6.37
2018-08-14T03:04:52.603Z,8.87
2018-08-14T03:07:20.916Z,8.73
2018-08-14T03:09:49.209Z,9.07
2018-08-14T03:12:17.536Z,6.23
2018-08-14T03:14:54.958Z,5.77
2018-08-14T03:17:23.248Z,6.87
2018-08-14T03:19:51.574Z,7.73
2018-08-14T03:22:19.934Z,7.00
2018-08-14T03:24:48.224Z,6.63
2018-08-14T03:27:16.600Z,6.80
2018-08-14T03:29:44.913Z,6.80
2018-08-14T03:32:13.297Z,7.40
2018-08-14T03:34:41.675Z,6.93
2018-08-14T03:37:09.996Z,6.53
2018-08-14T03:39:38.333Z,7.17
2018-08-14T03:42:06.658Z,9.80
2018-08-14T03:44:35.023Z,9.57
2018-08-14T03:47:03.366Z,9.73
2018-08-14T03:49:31.695Z,5.80
2018-08-14T03:52:00.031Z,7.20
2018-08-14T03:54:28.340Z,9.20
2018-08-14T03:56:56.858Z,14.13
2018-08-14T03:59:25.206Z,6.97
2018-08-14T04:01:53.559Z,8.60
2018-08-14T04:04:21.898Z,17.33
2018-08-14T04:06:50.207Z,8.10
2018-08-14T04:09:18.535Z,9.40
2018-08-14T04:11:46.878Z,8.97
2018-08-14T04:14:15.171Z,9.23
2018-08-14T04:16:46.559Z,8.40
2018-08-14T04:19:15.153Z,8.30
2018-08-14T04:21:43.792Z,9.33
2018-08-14T04:24:12.185Z,8.40
2018-08-14T04:26:40.573Z,7.23
2018-08-14T04:29:08.811Z,11.90
2018-08-14T04:31:37.139Z,7.40
2018-08-14T04:34:05.449Z,7.23
2018-08-14T04:36:33.787Z,7.27
2018-08-14T04:39:02.112Z,12.83
2018-08-14T04:41:30.540Z,10.70
2018-08-14T04:43:58.826Z,6.77
2018-08-14T04:46:27.269Z,7.40
2018-08-14T04:48:55.604Z,10.33
2018-08-14T04:51:23.915Z,7.20
2018-08-14T04:53:52.333Z,7.57
2018-08-14T04:56:20.659Z,7.17
2018-08-14T04:58:49.000Z,8.80
2018-08-14T05:01:17.425Z,6.50
2018-08-14T05:03:45.878Z,5.83
2018-08-14T05:06:14.252Z,8.80
2018-08-14T05:08:42.612Z,8.40
2018-08-14T05:11:10.950Z,6.60
2018-08-14T05:13:40.809Z,7.73
2018-08-14T05:16:09.397Z,14.30
2018-08-14T05:18:37.962Z,7.10
2018-08-14T05:21:06.294Z,10.57
2018-08-14T05:23:34.642Z,9.00
2018-08-14T05:26:03.018Z,9.67
2018-08-14T05:28:31.309Z,8.27
2018-08-14T05:30:59.781Z,7.60
2018-08-14T05:33:28.118Z,8.83
2018-08-14T05:35:56.377Z,8.00
2018-08-14T05:38:24.777Z,8.50
2018-08-14T05:40:53.169Z,10.67
2018-08-14T05:43:21.520Z,9.90
2018-08-14T05:45:49.885Z,10.27
2018-08-14T05:48:18.238Z,10.87
2018-08-14T05:50:46.547Z,11.43
2018-08-14T05:53:14.870Z,11.33
2018-08-14T05:55:43.240Z,12.73
2018-08-14T05:58:11.555Z,10.20
2018-08-14T06:00:39.961Z,15.00
2018-08-14T06:03:08.296Z,11.00
2018-08-14T06:05:36.645Z,13.33
2018-08-14T06:08:05.012Z,11.10
2018-08-14T06:10:33.364Z,11.77
2018-08-14T06:13:01.716Z,14.17
2018-08-14T06:15:30.061Z,10.53
2018-08-14T06:17:58.408Z,16.33
2018-08-14T06:20:26.753Z,11.07
2018-08-14T06:22:55.073Z,11.30
2018-08-14T06:25:23.608Z,12.60
2018-08-14T06:27:51.892Z,16.90
2018-08-14T06:30:20.949Z,12.43
2018-08-14T06:32:50.521Z,10.30
2018-08-14T06:35:18.884Z,11.60
2018-08-14T06:37:47.248Z,13.97
2018-08-14T06:40:16.993Z,10.90
2018-08-14T06:42:45.666Z,8.97
2018-08-14T06:45:15.528Z,10.70
2018-08-14T06:47:43.867Z,9.57
2018-08-14T06:50:17.087Z,11.27
2018-08-14T06:52:45.560Z,9.90
2018-08-14T06:55:14.098Z,13.27
2018-08-14T06:57:43.665Z,11.73
2018-08-14T07:00:14.155Z,10.13
2018-08-14T07:02:42.564Z,10.10
2018-08-14T07:05:10.999Z,11.17
2018-08-14T07:07:39.753Z,8.43
2018-08-14T07:10:09.617Z,8.97
2018-08-14T07:12:38.288Z,8.73
2018-08-14T07:15:22.550Z,8.73
2018-08-14T07:17:51.401Z,9.40
2018-08-14T07:20:19.764Z,8.97
2018-08-14T07:22:48.118Z,10.03
2018-08-14T07:25:18.121Z,8.93
2018-08-14T07:27:46.459Z,12.00
2018-08-14T07:30:19.822Z,8.33
2018-08-14T07:32:48.630Z,7.77
2018-08-14T07:35:17.280Z,8.17
2018-08-14T07:37:46.103Z,8.80
2018-08-14T07:40:14.847Z,9.67
2018-08-14T07:42:43.336Z,9.30
2018-08-14T07:45:13.966Z,11.60
2018-08-14T07:47:42.941Z,7.70
2018-08-14T07:50:11.786Z,8.20
2018-08-14T07:52:41.099Z,10.90
2018-08-14T07:55:10.231Z,8.97
2018-08-14T07:57:38.562Z,10.87
2018-08-14T08:00:10.431Z,10.40
2018-08-14T08:02:38.736Z,10.00
2018-08-14T08:05:07.598Z,8.90
2018-08-14T08:07:36.066Z,8.03
2018-08-14T08:10:06.539Z,8.90
2018-08-14T08:12:34.912Z,8.03
2018-08-14T08:15:03.251Z,8.43
2018-08-14T08:17:31.601Z,8.60
2018-08-14T08:19:59.933Z,7.87
2018-08-14T08:22:28.297Z,10.13
2018-08-14T08:24:56.632Z,8.53
2018-08-14T08:27:24.955Z,9.50
2018-08-14T08:29:53.319Z,7.90
2018-08-14T08:32:21.653Z,9.20
2018-08-14T08:34:50.013Z,8.43
2018-08-14T08:37:18.359Z,11.20
2018-08-14T08:39:46.713Z,7.83
2018-08-14T08:42:15.103Z,8.33
2018-08-14T08:44:43.469Z,11.87
2018-08-14T08:47:11.849Z,9.00
2018-08-14T08:49:40.216Z,9.00
2018-08-14T08:52:08.539Z,8.70
2018-08-14T08:54:36.947Z,9.30
2018-08-14T08:57:05.416Z,8.80
2018-08-14T08:59:33.781Z,9.23
2018-08-14T09:02:02.119Z,9.50
2018-08-14T09:04:30.470Z,11.70
2018-08-14T09:06:58.878Z,11.17
2018-08-14T09:09:27.268Z,10.17
2018-08-14T09:11:55.674Z,11.27
2018-08-14T09:14:24.047Z,11.63
2018-08-14T09:16:52.413Z,10.57
2018-08-14T09:19:20.821Z,10.80
2018-08-14T09:21:49.219Z,9.60
2018-08-14T09:24:17.767Z,9.07
2018-08-14T09:26:46.625Z,9.97
2018-08-14T09:29:15.064Z,9.60
2018-08-14T09:31:43.461Z,10.43
2018-08-14T09:34:11.780Z,8.00
2018-08-14T09:36:40.166Z,9.17
2018-08-14T09:39:11.219Z,11.33
2018-08-14T09:41:39.662Z,10.47
2018-08-14T09:44:08.028Z,8.17
2018-08-14T09:46:36.507Z,12.67
2018-08-14T09:49:05.213Z,9.73
2018-08-14T09:51:34.109Z,11.20
2018-08-14T09:54:03.050Z,10.70
2018-08-14T09:56:31.428Z,10.80
2018-08-14T09:58:59.769Z,9.27
2018-08-14T10:01:33.340Z,13.03
2018-08-14T10:04:05.945Z,11.13
2018-08-14T10:06:39.620Z,8.70
2018-08-14T10:09:09.510Z,7.57
2018-08-14T10:11:37.929Z,12.07
2018-08-14T10:14:06.318Z,11.83
2018-08-14T10:16:34.774Z,9.23
2018-08-14T10:19:03.151Z,8.90
2018-08-14T10:21:31.518Z,8.20
2018-08-14T10:24:00.021Z,10.03
2018-08-14T10:26:28.364Z,9.50
2018-08-14T10:28:56.763Z,10.00
2018-08-14T10:31:25.114Z,9.07
2018-08-14T10:33:53.427Z,9.10
2018-08-14T10:36:21.870Z,11.67
2018-08-14T10:38:50.426Z,9.63
2018-08-14T10:41:18.777Z,8.40
2018-08-14T10:43:47.163Z,8.27
2018-08-14T10:46:15.617Z,7.50
2018-08-14T10:48:43.929Z,9.17
2018-08-14T10:51:12.271Z,9.10
2018-08-14T10:53:40.667Z,10.33
2018-08-14T10:56:09.373Z,9.10
2018-08-14T10:58:37.839Z,10.83
2018-08-14T11:01:06.190Z,10.60
2018-08-14T11:03:34.602Z,9.90
2018-08-14T11:06:02.937Z,10.83
2018-08-14T11:08:31.432Z,11.10
2018-08-14T11:11:05.271Z,12.30
2018-08-14T11:13:33.639Z,12.77
2018-08-14T11:16:02.007Z,11.77
2018-08-14T11:18:30.362Z,11.30
2018-08-14T11:20:58.803Z,10.57
2018-08-14T11:23:27.145Z,11.37
2018-08-14T11:25:55.519Z,10.30
2018-08-14T11:28:23.902Z,10.20
2018-08-14T11:30:52.420Z,8.13
2018-08-14T11:33:20.821Z,9.63
2018-08-14T11:35:54.639Z,11.73
2018-08-14T11:38:23.054Z,6.63
2018-08-14T11:40:51.372Z,8.73
2018-08-14T11:43:19.742Z,6.20
2018-08-14T11:45:48.135Z,9.70
2018-08-14T11:48:16.502Z,6.97
2018-08-14T11:50:44.848Z,7.47
2018-08-14T11:53:13.203Z,6.23
2018-08-14T11:55:41.576Z,6.30
2018-08-14T11:58:09.951Z,7.63
2018-08-14T12:00:38.337Z,7.13
2018-08-14T12:03:07.500Z,6.40
2018-08-14T12:05:36.101Z,7.63
2018-08-14T12:08:04.500Z,5.67
2018-08-14T12:10:32.839Z,5.20
2018-08-14T12:13:01.287Z,5.83
2018-08-14T12:15:29.528Z,5.20
2018-08-14T12:17:57.905Z,4.80
2018-08-14T12:20:26.281Z,5.13
2018-08-14T12:22:54.626Z,7.13
2018-08-14T12:25:22.951Z,9.33
2018-08-14T12:27:51.368Z,5.37
2018-08-14T12:30:22.082Z,4.80
2018-08-14T12:32:50.646Z,4.67
2018-08-14T12:35:19.043Z,5.03
2018-08-14T12:37:47.409Z,4.60
2018-08-14T12:40:16.293Z,4.13
2018-08-14T12:42:44.654Z,4.90
2018-08-14T12:45:14.518Z,4.10
2018-08-14T12:47:42.995Z,7.83
2018-08-14T12:50:12.113Z,3.77
2018-08-14T12:52:40.504Z,4.00
2018-08-14T12:55:09.724Z,3.80
2018-08-14T12:57:38.159Z,4.10
2018-08-14T13:00:08.900Z,4.10
2018-08-14T13:02:37.267Z,5.07
2018-08-14T13:05:05.673Z,5.00
2018-08-14T13:07:34.243Z,5.63
2018-08-14T13:10:02.595Z,4.73
2018-08-14T13:12:30.959Z,4.10
2018-08-14T13:14:59.443Z,4.17
2018-08-14T13:17:27.863Z,4.60
2018-08-14T13:19:56.226Z,4.33
2018-08-14T13:22:24.622Z,3.87
2018-08-14T13:24:52.957Z,3.60
2018-08-14T13:27:21.408Z,3.80
2018-08-14T13:29:49.768Z,3.77
2018-08-14T13:32:18.210Z,4.07
2018-08-14T13:34:46.617Z,4.37
2018-08-14T13:37:14.969Z,4.67
2018-08-14T13:39:43.367Z,4.23
2018-08-14T13:42:11.746Z,4.30
2018-08-14T13:44:40.185Z,5.10
2018-08-14T13:47:08.622Z,3.47
2018-08-14T13:49:37.134Z,4.10
2018-08-14T13:52:05.622Z,4.53
2018-08-14T13:54:34.051Z,3.73
2018-08-14T13:57:02.426Z,3.50
2018-08-14T13:59:30.808Z,3.90
2018-08-14T14:01:59.170Z,5.07
2018-08-14T14:04:27.662Z,3.80
2018-08-14T14:06:56.055Z,3.57
2018-08-14T14:09:24.560Z,3.83
2018-08-14T14:11:52.932Z,4.00
2018-08-14T14:14:21.277Z,4.07
2018-08-14T14:16:49.832Z,4.03
2018-08-14T14:19:18.308Z,4.67
2018-08-14T14:21:46.666Z,4.33
2018-08-14T14:24:15.103Z,3.77
2018-08-14T14:26:43.537Z,4.70
2018-08-14T14:29:11.917Z,4.00
2018-08-14T14:31:40.514Z,4.20
2018-08-14T14:34:09.179Z,3.83
2018-08-14T14:36:37.517Z,4.13
2018-08-14T14:39:07.824Z,4.93
2018-08-14T14:41:36.392Z,5.00
2018-08-14T14:44:04.967Z,4.47
2018-08-14T14:46:33.417Z,5.63
2018-08-14T14:49:01.787Z,4.07
2018-08-14T14:51:30.356Z,5.13
2018-08-14T14:53:58.991Z,4.30
2018-08-14T14:59:08.485Z,5.20
2018-08-14T15:01:36.858Z,4.83
2018-08-14T15:04:05.309Z,4.90
2018-08-14T15:06:33.700Z,6.33
2018-08-14T15:09:02.070Z,5.07
2018-08-14T15:11:30.400Z,5.00
2018-08-14T15:13:58.784Z,4.40
2018-08-14T15:16:27.121Z,4.30
2018-08-14T15:19:06.710Z,5.23
2018-08-14T15:21:35.177Z,4.17
2018-08-14T15:24:03.569Z,4.53
2018-08-14T15:26:31.943Z,4.70
2018-08-14T15:29:05.670Z,5.30
2018-08-14T15:31:35.560Z,5.83
2018-08-14T15:34:04.619Z,5.67
2018-08-14T15:36:33.823Z,5.07
2018-08-14T15:39:04.735Z,5.37
2018-08-14T15:41:33.320Z,6.30
2018-08-14T15:44:01.716Z,5.13
2018-08-14T15:46:30.101Z,5.17
2018-08-14T15:48:58.535Z,6.40
2018-08-14T15:51:26.999Z,7.70
2018-08-14T15:53:55.410Z,6.40
2018-08-14T15:56:23.995Z,5.13
2018-08-14T15:58:52.529Z,6.10
2018-08-14T16:01:20.947Z,5.97
2018-08-14T16:03:49.462Z,5.37
2018-08-14T16:06:17.824Z,5.23
2018-08-14T16:08:46.201Z,5.50
2018-08-14T16:11:14.631Z,4.87
2018-08-14T16:13:42.993Z,8.00
2018-08-14T16:16:11.425Z,5.60
2018-08-14T16:18:39.849Z,5.30
2018-08-14T16:21:08.692Z,5.17
2018-08-14T16:23:37.059Z,4.50
2018-08-14T16:26:05.456Z,5.03
2018-08-14T16:28:33.829Z,5.17
2018-08-14T16:31:02.229Z,5.00
2018-08-14T16:33:30.797Z,7.50
2018-08-14T16:35:59.145Z,6.00
2018-08-14T16:38:27.537Z,6.73
2018-08-14T16:40:55.974Z,9.17
2018-08-14T16:43:24.290Z,6.17
2018-08-14T16:45:52.663Z,10.20
2018-08-14T16:48:21.051Z,5.40
2018-08-14T16:50:49.430Z,4.80
2018-08-14T16:53:17.835Z,6.20
2018-08-14T16:55:46.224Z,6.20
2018-08-14T16:58:14.669Z,4.97
2018-08-14T17:00:43.042Z,5.47
2018-08-14T17:03:12.245Z,8.20
2018-08-14T17:05:41.021Z,6.30
2018-08-14T17:08:09.441Z,5.50
2018-08-14T17:10:37.861Z,8.03
2018-08-14T17:13:06.418Z,5.67
2018-08-14T17:15:35.094Z,7.07
2018-08-14T17:18:03.461Z,8.40
2018-08-14T17:20:30.852Z,6.87
2018-08-14T17:22:59.283Z,8.50
2018-08-14T17:25:27.628Z,7.00
2018-08-14T17:27:56.053Z,7.00
2018-08-14T17:30:25.770Z,6.47
2018-08-14T17:32:54.867Z,8.23
2018-08-14T17:35:25.691Z,6.70
2018-08-14T17:37:55.007Z,9.53
2018-08-14T17:40:24.701Z,7.50
2018-08-14T17:42:53.294Z,8.70
2018-08-14T17:45:30.945Z,7.97
2018-08-14T17:48:00.874Z,11.30
2018-08-14T17:50:29.724Z,12.27
2018-08-14T17:52:58.213Z,10.43
2018-08-14T17:55:27.054Z,10.03
2018-08-14T17:57:55.548Z,9.50
2018-08-14T18:00:31.311Z,12.33
2018-08-14T18:03:04.494Z,14.93
2018-08-14T18:05:32.835Z,9.30
2018-08-14T18:08:01.286Z,10.17
2018-08-14T18:10:29.691Z,11.77
2018-08-14T18:12:58.090Z,10.10
2018-08-14T18:15:26.716Z,9.60
2018-08-14T18:17:55.093Z,15.87
2018-08-14T18:20:24.842Z,12.50
2018-08-14T18:22:53.270Z,11.50
2018-08-14T18:25:23.189Z,13.87
2018-08-14T18:27:52.113Z,10.63
2018-08-14T18:30:21.750Z,9.53
2018-08-14T18:32:50.594Z,15.50
2018-08-14T18:35:20.312Z,12.03
2018-08-14T18:37:49.207Z,13.97
2018-08-14T18:40:20.396Z,10.03
2018-08-14T18:42:49.018Z,11.47
2018-08-14T18:45:19.017Z,13.20
2018-08-14T18:47:47.523Z,14.93
2018-08-14T18:50:16.677Z,14.10
2018-08-14T18:52:45.097Z,11.90
2018-08-14T18:55:15.104Z,12.97
2018-08-14T18:57:44.373Z,14.17
2018-08-14T19:00:23.938Z,12.37
2018-08-14T19:02:53.209Z,12.50
2018-08-14T19:05:22.156Z,13.80
2018-08-14T19:07:50.596Z,12.47
2018-08-14T19:10:20.247Z,11.20
2018-08-14T19:12:49.473Z,14.90
2018-08-14T19:15:23.070Z,13.20
2018-08-14T19:17:51.502Z,12.80
2018-08-14T19:20:19.875Z,12.37
2018-08-14T19:22:48.309Z,15.20
2018-08-14T19:25:16.723Z,12.10
2018-08-14T19:27:45.143Z,13.70
2018-08-14T19:30:14.312Z,15.53
2018-08-14T19:32:43.281Z,16.23
2018-08-14T19:35:13.046Z,12.63
2018-08-14T19:37:41.458Z,16.37
2018-08-14T19:40:13.296Z,12.60
2018-08-14T19:42:41.687Z,12.40
2018-08-14T19:45:10.902Z,12.10
2018-08-14T19:47:39.713Z,15.53
2018-08-14T19:50:08.362Z,11.73
2018-08-14T19:52:37.470Z,11.37
2018-08-14T19:55:09.903Z,12.33
2018-08-14T19:57:38.823Z,10.57
2018-08-14T20:00:09.522Z,12.33
2018-08-14T20:02:38.005Z,10.53
2018-08-14T20:05:08.344Z,11.37
2018-08-14T20:07:36.771Z,11.83
2018-08-14T20:10:06.659Z,11.20
2018-08-14T20:12:35.090Z,10.57
2018-08-14T20:15:04.055Z,13.70
2018-08-14T20:17:32.433Z,14.63
2018-08-14T20:20:00.830Z,12.00
2018-08-14T20:22:29.240Z,11.50
2018-08-14T20:24:57.678Z,10.30
2018-08-14T20:27:26.072Z,13.10
2018-08-14T20:29:54.462Z,12.80
2018-08-14T20:32:22.909Z,13.53
2018-08-14T20:34:51.481Z,12.07
2018-08-14T20:37:19.886Z,11.70
2018-08-14T20:39:48.275Z,14.63
2018-08-14T20:42:27.016Z,13.50
2018-08-14T20:44:55.439Z,13.70
2018-08-14T20:47:23.856Z,13.43
2018-08-14T20:49:52.252Z,16.20
2018-08-14T20:52:20.735Z,13.60
2018-08-14T20:54:49.102Z,12.00
2018-08-14T20:57:17.546Z,13.13
2018-08-14T20:59:45.888Z,12.70
2018-08-14T21:02:14.264Z,13.87
2018-08-14T21:04:42.644Z,13.23
2018-08-14T21:07:11.104Z,13.23
2018-08-14T21:09:39.771Z,17.10
2018-08-14T21:12:08.210Z,12.93
2018-08-14T21:14:36.580Z,11.97
2018-08-14T21:17:04.956Z,12.97
2018-08-14T21:19:33.358Z,11.33
2018-08-14T21:22:01.755Z,12.43
2018-08-14T21:24:30.157Z,12.50
2018-08-14T21:26:58.568Z,12.50
2018-08-14T21:29:26.955Z,12.80
2018-08-14T21:31:55.338Z,15.53
2018-08-14T21:34:23.740Z,11.23
2018-08-14T21:36:52.117Z,13.27
2018-08-14T21:39:20.586Z,13.30
2018-08-14T21:41:48.979Z,15.23
2018-08-14T21:44:17.343Z,13.53
2018-08-14T21:46:45.764Z,12.07
2018-08-14T21:49:14.169Z,12.80
2018-08-14T21:51:42.518Z,16.37
2018-08-14T21:54:11.377Z,18.00
2018-08-14T21:56:39.830Z,16.20
2018-08-14T21:59:08.225Z,15.43
2018-08-14T22:01:36.628Z,15.20
2018-08-14T22:04:05.022Z,13.30
2018-08-14T22:06:33.682Z,21.33
2018-08-14T22:09:02.082Z,13.40
2018-08-14T22:11:30.436Z,13.87
2018-08-14T22:13:58.842Z,14.03
2018-08-14T22:16:27.362Z,15.37
2018-08-14T22:18:55.709Z,14.47
2018-08-14T22:21:24.141Z,15.13
2018-08-14T22:23:52.466Z,13.60
2018-08-14T22:26:20.894Z,13.70
2018-08-14T22:28:49.302Z,13.63
2018-08-14T22:31:18.002Z,16.27
2018-08-14T22:33:46.471Z,16.57
2018-08-14T22:36:14.826Z,15.37
2018-08-14T22:38:43.776Z,17.67
2018-08-14T22:41:12.161Z,14.90
2018-08-14T22:43:40.515Z,17.03
2018-08-14T22:46:08.901Z,15.80
2018-08-14T22:48:37.279Z,13.80
2018-08-14T22:51:05.993Z,12.93
2018-08-14T22:53:34.432Z,14.67
2018-08-14T22:56:02.775Z,15.87
2018-08-14T22:58:31.202Z,17.40
2018-08-14T23:01:01.945Z,15.10
2018-08-14T23:03:31.475Z,12.40
2018-08-14T23:05:59.828Z,14.80
2018-08-14T23:08:28.232Z,12.80
2018-08-14T23:10:56.638Z,18.90
2018-08-14T23:13:36.708Z,15.20
2018-08-14T23:19:01.960Z,13.13
2018-08-14T23:21:30.492Z,16.40
2018-08-14T23:23:58.824Z,16.17
2018-08-14T23:29:21.353Z,15.80
2018-08-14T23:31:49.813Z,11.97
2018-08-14T23:34:18.189Z,14.00
2018-08-14T23:36:47.152Z,13.53
2018-08-14T23:39:15.558Z,15.60
2018-08-14T23:41:44.065Z,13.57
2018-08-14T23:44:12.477Z,12.23
2018-08-14T23:46:40.821Z,12.47
2018-08-14T23:49:09.143Z,14.50
2018-08-14T23:51:37.572Z,14.73
2018-08-14T23:54:06.108Z,15.40
2018-08-14T23:56:34.869Z,13.40
2018-08-14T23:59:03.657Z,12.87
